sensor_id;sensor_type;location;lat;lon;timestamp;P1;durP1;ratioP1;P2;durP2;ratioP2
11671;SDS011;5892;43.412;24.612;2022-12-05T00:01:32;178.37;;;22.77;;
11671;SDS011;5892;43.412;24.612;2022-12-05T00:04:00;75.20;;;20.47;;
11671;SDS011;5892;43.412;24.612;2022-12-05T00:06:29;132.87;;;22.17;;
11671;SDS011;5892;43.412;24.612;2022-12-05T00:08:56;128.80;;;21.53;;
11671;SDS011;5892;43.412;24.612;2022-12-05T00:11:24;250.10;;;26.03;;
11671;SDS011;5892;43.412;24.612;2022-12-05T00:13:53;111.00;;;20.93;;
11671;SDS011;5892;43.412;24.612;2022-12-05T00:16:22;83.57;;;20.37;;
11671;SDS011;5892;43.412;24.612;2022-12-05T00:18:52;181.47;;;24.10;;
11671;SDS011;5892;43.412;24.612;2022-12-05T00:21:21;561.57;;;36.13;;
11671;SDS011;5892;43.412;24.612;2022-12-05T00:23:50;873.63;;;45.40;;
11671;SDS011;5892;43.412;24.612;2022-12-05T00:26:18;889.27;;;42.63;;
11671;SDS011;5892;43.412;24.612;2022-12-05T00:28:46;1234.00;;;57.97;;
11671;SDS011;5892;43.412;24.612;2022-12-05T00:31:14;1035.10;;;51.77;;
11671;SDS011;5892;43.412;24.612;2022-12-05T00:33:42;1902.53;;;83.10;;
11671;SDS011;5892;43.412;24.612;2022-12-05T00:36:12;1177.87;;;55.60;;
11671;SDS011;5892;43.412;24.612;2022-12-05T00:38:41;751.77;;;44.60;;
11671;SDS011;5892;43.412;24.612;2022-12-05T00:41:09;709.93;;;42.03;;
11671;SDS011;5892;43.412;24.612;2022-12-05T00:43:37;953.10;;;47.93;;
11671;SDS011;5892;43.412;24.612;2022-12-05T00:46:11;1257.27;;;54.73;;
11671;SDS011;5892;43.412;24.612;2022-12-05T00:48:39;645.63;;;37.70;;
11671;SDS011;5892;43.412;24.612;2022-12-05T00:51:07;1065.23;;;52.07;;
11671;SDS011;5892;43.412;24.612;2022-12-05T00:53:37;1040.90;;;52.30;;
11671;SDS011;5892;43.412;24.612;2022-12-05T00:56:06;763.23;;;46.63;;
11671;SDS011;5892;43.412;24.612;2022-12-05T00:58:35;483.60;;;34.37;;
11671;SDS011;5892;43.412;24.612;2022-12-05T01:01:06;580.43;;;35.50;;
11671;SDS011;5892;43.412;24.612;2022-12-05T01:03:33;233.17;;;26.33;;
11671;SDS011;5892;43.412;24.612;2022-12-05T01:06:01;281.03;;;27.37;;
11671;SDS011;5892;43.412;24.612;2022-12-05T01:08:30;180.13;;;23.87;;
11671;SDS011;5892;43.412;24.612;2022-12-05T01:10:59;114.07;;;23.50;;
11671;SDS011;5892;43.412;24.612;2022-12-05T01:13:26;349.30;;;31.00;;
11671;SDS011;5892;43.412;24.612;2022-12-05T01:15:54;243.13;;;27.00;;
11671;SDS011;5892;43.412;24.612;2022-12-05T01:18:21;362.50;;;31.00;;
11671;SDS011;5892;43.412;24.612;2022-12-05T01:20:49;113.60;;;23.77;;
11671;SDS011;5892;43.412;24.612;2022-12-05T01:23:17;253.57;;;27.50;;
11671;SDS011;5892;43.412;24.612;2022-12-05T01:25:46;186.50;;;24.57;;
11671;SDS011;5892;43.412;24.612;2022-12-05T01:28:16;251.67;;;25.50;;
11671;SDS011;5892;43.412;24.612;2022-12-05T01:30:44;93.97;;;21.60;;
11671;SDS011;5892;43.412;24.612;2022-12-05T01:33:12;208.60;;;25.30;;
11671;SDS011;5892;43.412;24.612;2022-12-05T01:35:39;432.60;;;33.13;;
11671;SDS011;5892;43.412;24.612;2022-12-05T01:38:07;446.80;;;29.77;;
11671;SDS011;5892;43.412;24.612;2022-12-05T01:40:35;208.47;;;25.53;;
11671;SDS011;5892;43.412;24.612;2022-12-05T01:43:03;83.17;;;22.37;;
11671;SDS011;5892;43.412;24.612;2022-12-05T01:45:34;79.20;;;21.47;;
11671;SDS011;5892;43.412;24.612;2022-12-05T01:48:05;166.13;;;23.83;;
11671;SDS011;5892;43.412;24.612;2022-12-05T01:50:36;109.97;;;22.47;;
11671;SDS011;5892;43.412;24.612;2022-12-05T01:53:03;125.13;;;22.93;;
11671;SDS011;5892;43.412;24.612;2022-12-05T01:55:31;61.00;;;21.77;;
11671;SDS011;5892;43.412;24.612;2022-12-05T01:58:00;73.40;;;21.70;;
11671;SDS011;5892;43.412;24.612;2022-12-05T02:00:28;111.80;;;22.87;;
11671;SDS011;5892;43.412;24.612;2022-12-05T02:02:58;49.93;;;21.17;;
11671;SDS011;5892;43.412;24.612;2022-12-05T02:05:28;55.77;;;21.30;;
11671;SDS011;5892;43.412;24.612;2022-12-05T02:07:56;107.07;;;23.33;;
11671;SDS011;5892;43.412;24.612;2022-12-05T02:10:24;52.40;;;21.60;;
11671;SDS011;5892;43.412;24.612;2022-12-05T02:12:51;97.67;;;23.43;;
11671;SDS011;5892;43.412;24.612;2022-12-05T02:15:32;55.63;;;21.47;;
11671;SDS011;5892;43.412;24.612;2022-12-05T02:21:02;67.60;;;21.93;;
11671;SDS011;5892;43.412;24.612;2022-12-05T02:26:59;50.23;;;20.47;;
11671;SDS011;5892;43.412;24.612;2022-12-05T02:30:14;60.23;;;21.67;;
11671;SDS011;5892;43.412;24.612;2022-12-05T02:32:48;57.77;;;20.83;;
11671;SDS011;5892;43.412;24.612;2022-12-05T02:35:26;52.90;;;21.93;;
11671;SDS011;5892;43.412;24.612;2022-12-05T02:38:04;53.40;;;22.00;;
11671;SDS011;5892;43.412;24.612;2022-12-05T02:40:39;45.40;;;20.80;;
11671;SDS011;5892;43.412;24.612;2022-12-05T02:43:12;48.43;;;20.30;;
11671;SDS011;5892;43.412;24.612;2022-12-05T02:45:43;53.77;;;20.77;;
11671;SDS011;5892;43.412;24.612;2022-12-05T02:48:13;56.17;;;21.30;;
11671;SDS011;5892;43.412;24.612;2022-12-05T02:50:43;50.23;;;21.30;;
11671;SDS011;5892;43.412;24.612;2022-12-05T02:53:13;52.03;;;20.30;;
11671;SDS011;5892;43.412;24.612;2022-12-05T02:55:42;42.37;;;18.93;;
11671;SDS011;5892;43.412;24.612;2022-12-05T02:58:12;45.80;;;18.70;;
11671;SDS011;5892;43.412;24.612;2022-12-05T03:00:44;47.47;;;20.20;;
11671;SDS011;5892;43.412;24.612;2022-12-05T03:03:14;46.43;;;20.70;;
11671;SDS011;5892;43.412;24.612;2022-12-05T03:05:46;48.63;;;20.33;;
11671;SDS011;5892;43.412;24.612;2022-12-05T03:08:21;45.87;;;20.20;;
11671;SDS011;5892;43.412;24.612;2022-12-05T03:10:50;56.20;;;21.73;;
11671;SDS011;5892;43.412;24.612;2022-12-05T03:13:20;52.63;;;21.60;;
11671;SDS011;5892;43.412;24.612;2022-12-05T03:15:55;61.47;;;22.57;;
11671;SDS011;5892;43.412;24.612;2022-12-05T03:18:26;55.60;;;22.00;;
11671;SDS011;5892;43.412;24.612;2022-12-05T03:20:56;62.07;;;24.70;;
11671;SDS011;5892;43.412;24.612;2022-12-05T03:23:28;47.87;;;21.17;;
11671;SDS011;5892;43.412;24.612;2022-12-05T03:26:00;66.17;;;22.73;;
11671;SDS011;5892;43.412;24.612;2022-12-05T03:28:38;29.47;;;16.07;;
11671;SDS011;5892;43.412;24.612;2022-12-05T03:31:17;24.73;;;14.60;;
11671;SDS011;5892;43.412;24.612;2022-12-05T03:33:50;23.43;;;14.00;;
11671;SDS011;5892;43.412;24.612;2022-12-05T03:36:26;21.90;;;13.63;;
11671;SDS011;5892;43.412;24.612;2022-12-05T03:39:01;19.73;;;13.73;;
11671;SDS011;5892;43.412;24.612;2022-12-05T03:41:31;19.53;;;13.53;;
11671;SDS011;5892;43.412;24.612;2022-12-05T03:44:06;22.57;;;14.17;;
11671;SDS011;5892;43.412;24.612;2022-12-05T03:46:38;23.57;;;14.37;;
11671;SDS011;5892;43.412;24.612;2022-12-05T03:49:10;19.17;;;12.73;;
11671;SDS011;5892;43.412;24.612;2022-12-05T03:51:44;20.93;;;14.27;;
11671;SDS011;5892;43.412;24.612;2022-12-05T03:54:15;23.23;;;13.43;;
11671;SDS011;5892;43.412;24.612;2022-12-05T03:56:48;20.17;;;13.93;;
11671;SDS011;5892;43.412;24.612;2022-12-05T03:59:22;16.97;;;13.27;;
11671;SDS011;5892;43.412;24.612;2022-12-05T04:01:57;19.07;;;13.97;;
11671;SDS011;5892;43.412;24.612;2022-12-05T04:04:29;16.30;;;11.93;;
11671;SDS011;5892;43.412;24.612;2022-12-05T04:07:03;16.80;;;13.00;;
11671;SDS011;5892;43.412;24.612;2022-12-05T04:09:34;17.73;;;12.70;;
11671;SDS011;5892;43.412;24.612;2022-12-05T04:12:05;18.23;;;13.40;;
11671;SDS011;5892;43.412;24.612;2022-12-05T04:14:38;18.20;;;13.03;;
11671;SDS011;5892;43.412;24.612;2022-12-05T04:17:11;19.40;;;13.57;;
11671;SDS011;5892;43.412;24.612;2022-12-05T04:19:46;17.33;;;13.40;;
11671;SDS011;5892;43.412;24.612;2022-12-05T04:22:33;17.77;;;13.60;;
11671;SDS011;5892;43.412;24.612;2022-12-05T04:25:02;17.83;;;13.20;;
11671;SDS011;5892;43.412;24.612;2022-12-05T04:27:52;17.20;;;13.03;;
11671;SDS011;5892;43.412;24.612;2022-12-05T04:30:22;16.70;;;13.57;;
11671;SDS011;5892;43.412;24.612;2022-12-05T04:32:55;19.70;;;13.87;;
11671;SDS011;5892;43.412;24.612;2022-12-05T04:35:31;16.97;;;13.07;;
11671;SDS011;5892;43.412;24.612;2022-12-05T04:38:08;19.70;;;14.00;;
11671;SDS011;5892;43.412;24.612;2022-12-05T04:40:39;17.10;;;13.23;;
11671;SDS011;5892;43.412;24.612;2022-12-05T04:43:09;18.60;;;14.60;;
11671;SDS011;5892;43.412;24.612;2022-12-05T04:45:40;18.20;;;14.07;;
11671;SDS011;5892;43.412;24.612;2022-12-05T04:48:11;19.20;;;13.90;;
11671;SDS011;5892;43.412;24.612;2022-12-05T04:50:40;22.07;;;15.93;;
11671;SDS011;5892;43.412;24.612;2022-12-05T04:53:10;20.97;;;15.20;;
11671;SDS011;5892;43.412;24.612;2022-12-05T04:55:40;18.10;;;14.07;;
11671;SDS011;5892;43.412;24.612;2022-12-05T04:58:12;20.83;;;14.37;;
11671;SDS011;5892;43.412;24.612;2022-12-05T05:00:44;21.13;;;14.63;;
11671;SDS011;5892;43.412;24.612;2022-12-05T05:03:17;17.60;;;13.67;;
11671;SDS011;5892;43.412;24.612;2022-12-05T05:05:50;18.97;;;14.60;;
11671;SDS011;5892;43.412;24.612;2022-12-05T05:08:20;18.43;;;14.80;;
11671;SDS011;5892;43.412;24.612;2022-12-05T05:10:51;21.57;;;14.97;;
11671;SDS011;5892;43.412;24.612;2022-12-05T05:13:26;17.50;;;14.40;;
11671;SDS011;5892;43.412;24.612;2022-12-05T05:15:53;20.23;;;14.87;;
11671;SDS011;5892;43.412;24.612;2022-12-05T05:18:21;19.10;;;14.33;;
11671;SDS011;5892;43.412;24.612;2022-12-05T05:20:48;18.43;;;13.47;;
11671;SDS011;5892;43.412;24.612;2022-12-05T05:23:20;19.63;;;13.80;;
11671;SDS011;5892;43.412;24.612;2022-12-05T05:25:50;18.43;;;13.93;;
11671;SDS011;5892;43.412;24.612;2022-12-05T05:28:18;17.53;;;14.03;;
11671;SDS011;5892;43.412;24.612;2022-12-05T05:30:45;20.03;;;15.47;;
11671;SDS011;5892;43.412;24.612;2022-12-05T05:33:12;22.67;;;13.97;;
11671;SDS011;5892;43.412;24.612;2022-12-05T05:35:44;18.20;;;14.37;;
11671;SDS011;5892;43.412;24.612;2022-12-05T05:38:12;17.70;;;12.87;;
11671;SDS011;5892;43.412;24.612;2022-12-05T05:40:39;19.60;;;13.73;;
11671;SDS011;5892;43.412;24.612;2022-12-05T05:43:05;22.07;;;14.03;;
11671;SDS011;5892;43.412;24.612;2022-12-05T05:45:35;19.03;;;13.33;;
11671;SDS011;5892;43.412;24.612;2022-12-05T05:48:02;20.83;;;14.60;;
11671;SDS011;5892;43.412;24.612;2022-12-05T05:50:29;21.77;;;15.13;;
11671;SDS011;5892;43.412;24.612;2022-12-05T05:52:58;20.50;;;14.73;;
11671;SDS011;5892;43.412;24.612;2022-12-05T05:55:25;20.63;;;14.50;;
11671;SDS011;5892;43.412;24.612;2022-12-05T05:57:52;26.97;;;13.90;;
11671;SDS011;5892;43.412;24.612;2022-12-05T06:00:19;27.20;;;13.60;;
11671;SDS011;5892;43.412;24.612;2022-12-05T06:02:46;19.77;;;14.17;;
11671;SDS011;5892;43.412;24.612;2022-12-05T06:05:13;25.93;;;14.83;;
11671;SDS011;5892;43.412;24.612;2022-12-05T06:07:40;22.97;;;13.67;;
11671;SDS011;5892;43.412;24.612;2022-12-05T06:10:08;26.10;;;13.60;;
11671;SDS011;5892;43.412;24.612;2022-12-05T06:12:35;21.93;;;13.37;;
11671;SDS011;5892;43.412;24.612;2022-12-05T06:15:02;30.57;;;16.00;;
11671;SDS011;5892;43.412;24.612;2022-12-05T06:17:29;23.43;;;13.87;;
11671;SDS011;5892;43.412;24.612;2022-12-05T06:19:56;25.20;;;14.27;;
11671;SDS011;5892;43.412;24.612;2022-12-05T06:22:24;19.50;;;13.27;;
11671;SDS011;5892;43.412;24.612;2022-12-05T06:24:50;20.23;;;14.40;;
11671;SDS011;5892;43.412;24.612;2022-12-05T06:27:19;19.47;;;14.17;;
11671;SDS011;5892;43.412;24.612;2022-12-05T06:29:45;19.67;;;13.83;;
11671;SDS011;5892;43.412;24.612;2022-12-05T06:32:12;20.90;;;14.13;;
11671;SDS011;5892;43.412;24.612;2022-12-05T06:34:39;24.17;;;14.87;;
11671;SDS011;5892;43.412;24.612;2022-12-05T06:37:06;28.00;;;14.00;;
11671;SDS011;5892;43.412;24.612;2022-12-05T06:39:33;24.23;;;14.77;;
11671;SDS011;5892;43.412;24.612;2022-12-05T06:42:00;27.80;;;18.87;;
11671;SDS011;5892;43.412;24.612;2022-12-05T06:44:29;22.60;;;14.37;;
11671;SDS011;5892;43.412;24.612;2022-12-05T06:46:56;32.70;;;14.90;;
11671;SDS011;5892;43.412;24.612;2022-12-05T06:49:23;27.30;;;14.97;;
11671;SDS011;5892;43.412;24.612;2022-12-05T06:51:56;27.03;;;16.20;;
11671;SDS011;5892;43.412;24.612;2022-12-05T06:54:24;32.13;;;15.23;;
11671;SDS011;5892;43.412;24.612;2022-12-05T06:56:51;25.07;;;15.10;;
11671;SDS011;5892;43.412;24.612;2022-12-05T06:59:17;29.60;;;15.33;;
11671;SDS011;5892;43.412;24.612;2022-12-05T07:01:46;40.33;;;14.67;;
11671;SDS011;5892;43.412;24.612;2022-12-05T07:04:12;24.63;;;14.73;;
11671;SDS011;5892;43.412;24.612;2022-12-05T07:06:41;41.10;;;14.20;;
11671;SDS011;5892;43.412;24.612;2022-12-05T07:09:10;23.40;;;14.87;;
11671;SDS011;5892;43.412;24.612;2022-12-05T07:11:37;38.30;;;13.93;;
11671;SDS011;5892;43.412;24.612;2022-12-05T07:14:04;49.43;;;13.30;;
11671;SDS011;5892;43.412;24.612;2022-12-05T07:16:33;37.33;;;15.07;;
11671;SDS011;5892;43.412;24.612;2022-12-05T07:19:02;28.13;;;15.10;;
11671;SDS011;5892;43.412;24.612;2022-12-05T07:21:29;86.77;;;19.20;;
11671;SDS011;5892;43.412;24.612;2022-12-05T07:23:56;33.10;;;21.07;;
11671;SDS011;5892;43.412;24.612;2022-12-05T07:26:23;35.70;;;16.00;;
11671;SDS011;5892;43.412;24.612;2022-12-05T07:28:50;37.43;;;15.60;;
11671;SDS011;5892;43.412;24.612;2022-12-05T07:31:18;59.47;;;16.23;;
11671;SDS011;5892;43.412;24.612;2022-12-05T07:33:47;260.23;;;22.73;;
11671;SDS011;5892;43.412;24.612;2022-12-05T07:36:17;186.40;;;21.67;;
11671;SDS011;5892;43.412;24.612;2022-12-05T07:38:45;503.67;;;31.60;;
11671;SDS011;5892;43.412;24.612;2022-12-05T07:41:13;702.97;;;40.17;;
11671;SDS011;5892;43.412;24.612;2022-12-05T07:43:44;685.93;;;38.30;;
11671;SDS011;5892;43.412;24.612;2022-12-05T07:46:11;377.83;;;29.77;;
11671;SDS011;5892;43.412;24.612;2022-12-05T07:48:38;197.47;;;23.27;;
11671;SDS011;5892;43.412;24.612;2022-12-05T07:51:06;49.37;;;16.30;;
11671;SDS011;5892;43.412;24.612;2022-12-05T07:53:36;119.87;;;21.17;;
11671;SDS011;5892;43.412;24.612;2022-12-05T07:56:06;362.83;;;27.77;;
11671;SDS011;5892;43.412;24.612;2022-12-05T07:58:34;133.13;;;20.87;;
11671;SDS011;5892;43.412;24.612;2022-12-05T08:01:05;194.53;;;20.10;;
11671;SDS011;5892;43.412;24.612;2022-12-05T08:03:33;29.73;;;14.30;;
11671;SDS011;5892;43.412;24.612;2022-12-05T08:06:01;35.17;;;15.53;;
11671;SDS011;5892;43.412;24.612;2022-12-05T08:08:29;38.70;;;14.77;;
11671;SDS011;5892;43.412;24.612;2022-12-05T08:11:01;30.13;;;16.07;;
11671;SDS011;5892;43.412;24.612;2022-12-05T08:13:29;48.57;;;15.30;;
11671;SDS011;5892;43.412;24.612;2022-12-05T08:15:59;84.83;;;15.30;;
11671;SDS011;5892;43.412;24.612;2022-12-05T08:18:27;108.63;;;16.53;;
11671;SDS011;5892;43.412;24.612;2022-12-05T08:20:55;23.00;;;14.00;;
11671;SDS011;5892;43.412;24.612;2022-12-05T08:23:27;26.30;;;14.90;;
11671;SDS011;5892;43.412;24.612;2022-12-05T08:25:54;26.00;;;15.33;;
11671;SDS011;5892;43.412;24.612;2022-12-05T08:28:22;18.30;;;13.90;;
11671;SDS011;5892;43.412;24.612;2022-12-05T08:30:49;26.50;;;17.47;;
11671;SDS011;5892;43.412;24.612;2022-12-05T08:33:16;17.90;;;13.87;;
11671;SDS011;5892;43.412;24.612;2022-12-05T08:35:43;22.63;;;16.17;;
11671;SDS011;5892;43.412;24.612;2022-12-05T08:38:10;21.77;;;14.50;;
11671;SDS011;5892;43.412;24.612;2022-12-05T08:40:37;19.93;;;13.77;;
11671;SDS011;5892;43.412;24.612;2022-12-05T08:43:05;19.00;;;12.63;;
11671;SDS011;5892;43.412;24.612;2022-12-05T08:45:33;19.97;;;13.73;;
11671;SDS011;5892;43.412;24.612;2022-12-05T08:48:00;20.63;;;13.37;;
11671;SDS011;5892;43.412;24.612;2022-12-05T08:50:27;18.37;;;13.13;;
11671;SDS011;5892;43.412;24.612;2022-12-05T08:52:54;19.60;;;13.83;;
11671;SDS011;5892;43.412;24.612;2022-12-05T08:55:21;17.80;;;12.57;;
11671;SDS011;5892;43.412;24.612;2022-12-05T08:57:47;18.67;;;13.60;;
11671;SDS011;5892;43.412;24.612;2022-12-05T09:00:15;19.30;;;13.50;;
11671;SDS011;5892;43.412;24.612;2022-12-05T09:02:43;14.27;;;10.67;;
11671;SDS011;5892;43.412;24.612;2022-12-05T09:05:15;16.10;;;11.03;;
11671;SDS011;5892;43.412;24.612;2022-12-05T09:07:42;15.20;;;11.83;;
11671;SDS011;5892;43.412;24.612;2022-12-05T09:10:09;14.57;;;11.33;;
11671;SDS011;5892;43.412;24.612;2022-12-05T09:12:36;14.63;;;10.80;;
11671;SDS011;5892;43.412;24.612;2022-12-05T09:15:05;15.93;;;11.90;;
11671;SDS011;5892;43.412;24.612;2022-12-05T09:17:34;17.20;;;12.27;;
11671;SDS011;5892;43.412;24.612;2022-12-05T09:20:03;14.50;;;11.20;;
11671;SDS011;5892;43.412;24.612;2022-12-05T09:22:33;17.00;;;10.93;;
11671;SDS011;5892;43.412;24.612;2022-12-05T09:25:00;14.47;;;9.93;;
11671;SDS011;5892;43.412;24.612;2022-12-05T09:27:28;15.73;;;11.10;;
11671;SDS011;5892;43.412;24.612;2022-12-05T09:29:55;17.17;;;12.00;;
11671;SDS011;5892;43.412;24.612;2022-12-05T09:32:22;17.13;;;12.43;;
11671;SDS011;5892;43.412;24.612;2022-12-05T09:34:49;18.20;;;13.40;;
11671;SDS011;5892;43.412;24.612;2022-12-05T09:37:17;16.13;;;11.77;;
11671;SDS011;5892;43.412;24.612;2022-12-05T09:39:44;17.93;;;13.27;;
11671;SDS011;5892;43.412;24.612;2022-12-05T09:42:15;18.30;;;13.50;;
11671;SDS011;5892;43.412;24.612;2022-12-05T09:45:09;15.97;;;11.60;;
11671;SDS011;5892;43.412;24.612;2022-12-05T09:47:44;14.53;;;10.30;;
11671;SDS011;5892;43.412;24.612;2022-12-05T09:50:16;14.63;;;10.57;;
11671;SDS011;5892;43.412;24.612;2022-12-05T09:52:52;13.20;;;9.83;;
11671;SDS011;5892;43.412;24.612;2022-12-05T09:55:28;13.37;;;10.57;;
11671;SDS011;5892;43.412;24.612;2022-12-05T09:58:00;15.10;;;11.07;;
11671;SDS011;5892;43.412;24.612;2022-12-05T10:00:29;17.10;;;11.83;;
11671;SDS011;5892;43.412;24.612;2022-12-05T10:03:00;15.90;;;11.87;;
11671;SDS011;5892;43.412;24.612;2022-12-05T10:05:38;15.23;;;11.23;;
11671;SDS011;5892;43.412;24.612;2022-12-05T10:08:12;16.93;;;11.80;;
11671;SDS011;5892;43.412;24.612;2022-12-05T10:10:49;17.23;;;11.40;;
11671;SDS011;5892;43.412;24.612;2022-12-05T10:13:32;14.80;;;11.83;;
11671;SDS011;5892;43.412;24.612;2022-12-05T10:16:11;14.33;;;11.70;;
11671;SDS011;5892;43.412;24.612;2022-12-05T10:18:44;16.67;;;12.07;;
11671;SDS011;5892;43.412;24.612;2022-12-05T10:21:15;16.90;;;12.70;;
11671;SDS011;5892;43.412;24.612;2022-12-05T10:23:50;16.27;;;12.13;;
11671;SDS011;5892;43.412;24.612;2022-12-05T10:26:21;19.13;;;13.17;;
11671;SDS011;5892;43.412;24.612;2022-12-05T10:28:53;18.37;;;13.57;;
11671;SDS011;5892;43.412;24.612;2022-12-05T10:31:26;15.27;;;12.40;;
11671;SDS011;5892;43.412;24.612;2022-12-05T10:33:57;19.10;;;13.03;;
11671;SDS011;5892;43.412;24.612;2022-12-05T10:36:29;17.80;;;12.90;;
11671;SDS011;5892;43.412;24.612;2022-12-05T10:38:58;22.70;;;12.60;;
11671;SDS011;5892;43.412;24.612;2022-12-05T10:41:25;17.60;;;13.77;;
11671;SDS011;5892;43.412;24.612;2022-12-05T10:43:52;17.87;;;13.50;;
11671;SDS011;5892;43.412;24.612;2022-12-05T10:46:20;16.40;;;12.67;;
11671;SDS011;5892;43.412;24.612;2022-12-05T10:48:47;18.33;;;14.30;;
11671;SDS011;5892;43.412;24.612;2022-12-05T10:51:15;19.80;;;13.53;;
11671;SDS011;5892;43.412;24.612;2022-12-05T10:53:46;20.30;;;15.17;;
11671;SDS011;5892;43.412;24.612;2022-12-05T10:59:05;21.40;;;14.73;;
11671;SDS011;5892;43.412;24.612;2022-12-05T11:01:34;17.90;;;14.50;;
11671;SDS011;5892;43.412;24.612;2022-12-05T11:04:03;20.67;;;16.03;;
11671;SDS011;5892;43.412;24.612;2022-12-05T11:06:35;23.70;;;16.90;;
11671;SDS011;5892;43.412;24.612;2022-12-05T11:09:04;22.63;;;16.03;;
11671;SDS011;5892;43.412;24.612;2022-12-05T11:11:42;21.00;;;15.20;;
11671;SDS011;5892;43.412;24.612;2022-12-05T11:14:25;22.13;;;16.07;;
11671;SDS011;5892;43.412;24.612;2022-12-05T11:16:54;23.80;;;15.97;;
11671;SDS011;5892;43.412;24.612;2022-12-05T11:19:24;22.13;;;14.70;;
11671;SDS011;5892;43.412;24.612;2022-12-05T11:21:53;22.97;;;17.10;;
11671;SDS011;5892;43.412;24.612;2022-12-05T11:24:22;20.97;;;16.50;;
11671;SDS011;5892;43.412;24.612;2022-12-05T11:26:54;17.63;;;15.03;;
11671;SDS011;5892;43.412;24.612;2022-12-05T11:29:29;23.47;;;15.40;;
11671;SDS011;5892;43.412;24.612;2022-12-05T11:31:57;19.13;;;15.87;;
11671;SDS011;5892;43.412;24.612;2022-12-05T11:34:25;22.27;;;17.20;;
11671;SDS011;5892;43.412;24.612;2022-12-05T11:36:57;25.43;;;18.63;;
11671;SDS011;5892;43.412;24.612;2022-12-05T11:39:30;32.73;;;22.97;;
11671;SDS011;5892;43.412;24.612;2022-12-05T11:42:05;30.20;;;21.80;;
11671;SDS011;5892;43.412;24.612;2022-12-05T11:44:48;42.53;;;27.43;;
11671;SDS011;5892;43.412;24.612;2022-12-05T11:47:28;43.13;;;27.77;;
11671;SDS011;5892;43.412;24.612;2022-12-05T11:50:10;38.07;;;25.83;;
11671;SDS011;5892;43.412;24.612;2022-12-05T11:52:50;32.03;;;22.33;;
11671;SDS011;5892;43.412;24.612;2022-12-05T11:55:28;29.07;;;19.73;;
11671;SDS011;5892;43.412;24.612;2022-12-05T11:58:04;28.97;;;20.57;;
11671;SDS011;5892;43.412;24.612;2022-12-05T12:00:52;25.27;;;17.90;;
11671;SDS011;5892;43.412;24.612;2022-12-05T12:06:31;25.27;;;17.60;;
11671;SDS011;5892;43.412;24.612;2022-12-05T12:09:14;22.30;;;17.53;;
11671;SDS011;5892;43.412;24.612;2022-12-05T12:11:52;24.37;;;18.57;;
11671;SDS011;5892;43.412;24.612;2022-12-05T12:14:30;24.57;;;18.13;;
11671;SDS011;5892;43.412;24.612;2022-12-05T12:17:10;25.37;;;20.17;;
11671;SDS011;5892;43.412;24.612;2022-12-05T12:19:54;26.47;;;19.43;;
11671;SDS011;5892;43.412;24.612;2022-12-05T12:22:37;23.77;;;18.43;;
11671;SDS011;5892;43.412;24.612;2022-12-05T12:25:18;22.43;;;17.10;;
11671;SDS011;5892;43.412;24.612;2022-12-05T12:27:55;24.13;;;18.87;;
11671;SDS011;5892;43.412;24.612;2022-12-05T12:30:38;26.60;;;20.27;;
11671;SDS011;5892;43.412;24.612;2022-12-05T12:33:17;24.53;;;19.20;;
11671;SDS011;5892;43.412;24.612;2022-12-05T12:35:55;25.90;;;19.97;;
11671;SDS011;5892;43.412;24.612;2022-12-05T12:41:37;27.97;;;22.03;;
11671;SDS011;5892;43.412;24.612;2022-12-05T12:44:20;22.10;;;16.37;;
11671;SDS011;5892;43.412;24.612;2022-12-05T12:47:03;17.80;;;13.40;;
11671;SDS011;5892;43.412;24.612;2022-12-05T12:49:41;27.90;;;14.17;;
11671;SDS011;5892;43.412;24.612;2022-12-05T12:52:18;22.30;;;19.60;;
11671;SDS011;5892;43.412;24.612;2022-12-05T12:54:57;23.80;;;18.07;;
11671;SDS011;5892;43.412;24.612;2022-12-05T12:57:37;19.33;;;13.17;;
11671;SDS011;5892;43.412;24.612;2022-12-05T13:00:22;18.60;;;13.23;;
11671;SDS011;5892;43.412;24.612;2022-12-05T13:03:01;18.37;;;13.20;;
11671;SDS011;5892;43.412;24.612;2022-12-05T13:05:35;15.47;;;10.00;;
11671;SDS011;5892;43.412;24.612;2022-12-05T13:08:10;16.27;;;10.83;;
11671;SDS011;5892;43.412;24.612;2022-12-05T13:10:42;16.67;;;11.40;;
11671;SDS011;5892;43.412;24.612;2022-12-05T13:13:11;14.93;;;10.67;;
11671;SDS011;5892;43.412;24.612;2022-12-05T13:15:42;16.70;;;10.30;;
11671;SDS011;5892;43.412;24.612;2022-12-05T13:18:14;15.03;;;10.40;;
11671;SDS011;5892;43.412;24.612;2022-12-05T13:20:43;13.10;;;8.37;;
11671;SDS011;5892;43.412;24.612;2022-12-05T13:23:13;14.00;;;9.37;;
11671;SDS011;5892;43.412;24.612;2022-12-05T13:25:43;14.93;;;9.57;;
11671;SDS011;5892;43.412;24.612;2022-12-05T13:28:16;14.70;;;10.00;;
11671;SDS011;5892;43.412;24.612;2022-12-05T13:30:53;16.93;;;10.47;;
11671;SDS011;5892;43.412;24.612;2022-12-05T13:33:28;17.17;;;10.80;;
11671;SDS011;5892;43.412;24.612;2022-12-05T13:36:02;18.60;;;10.23;;
11671;SDS011;5892;43.412;24.612;2022-12-05T13:38:52;17.67;;;12.07;;
11671;SDS011;5892;43.412;24.612;2022-12-05T13:41:40;13.93;;;9.80;;
11671;SDS011;5892;43.412;24.612;2022-12-05T13:44:28;14.90;;;9.60;;
11671;SDS011;5892;43.412;24.612;2022-12-05T13:46:58;17.00;;;10.43;;
11671;SDS011;5892;43.412;24.612;2022-12-05T13:49:29;18.97;;;11.03;;
11671;SDS011;5892;43.412;24.612;2022-12-05T13:52:04;17.63;;;11.33;;
11671;SDS011;5892;43.412;24.612;2022-12-05T13:54:33;17.73;;;10.57;;
11671;SDS011;5892;43.412;24.612;2022-12-05T13:57:13;17.90;;;11.47;;
11671;SDS011;5892;43.412;24.612;2022-12-05T14:00:25;20.33;;;11.20;;
11671;SDS011;5892;43.412;24.612;2022-12-05T14:02:56;19.70;;;12.00;;
11671;SDS011;5892;43.412;24.612;2022-12-05T14:05:37;17.23;;;11.37;;
11671;SDS011;5892;43.412;24.612;2022-12-05T14:11:18;19.47;;;11.60;;
11671;SDS011;5892;43.412;24.612;2022-12-05T14:13:45;17.23;;;11.30;;
11671;SDS011;5892;43.412;24.612;2022-12-05T14:19:21;18.47;;;10.73;;
11671;SDS011;5892;43.412;24.612;2022-12-05T14:21:59;21.97;;;12.27;;
11671;SDS011;5892;43.412;24.612;2022-12-05T14:24:41;20.23;;;13.70;;
11671;SDS011;5892;43.412;24.612;2022-12-05T14:27:19;21.87;;;16.13;;
11671;SDS011;5892;43.412;24.612;2022-12-05T14:29:58;29.23;;;21.77;;
11671;SDS011;5892;43.412;24.612;2022-12-05T14:32:30;18.87;;;14.57;;
11671;SDS011;5892;43.412;24.612;2022-12-05T14:35:00;19.23;;;12.80;;
11671;SDS011;5892;43.412;24.612;2022-12-05T14:37:39;20.07;;;12.47;;
11671;SDS011;5892;43.412;24.612;2022-12-05T14:40:16;17.30;;;12.07;;
11671;SDS011;5892;43.412;24.612;2022-12-05T14:42:56;20.63;;;11.60;;
11671;SDS011;5892;43.412;24.612;2022-12-05T14:45:27;18.57;;;12.00;;
11671;SDS011;5892;43.412;24.612;2022-12-05T14:47:58;19.67;;;12.93;;
11671;SDS011;5892;43.412;24.612;2022-12-05T14:50:34;19.50;;;13.20;;
11671;SDS011;5892;43.412;24.612;2022-12-05T14:53:21;20.73;;;14.27;;
11671;SDS011;5892;43.412;24.612;2022-12-05T14:56:14;24.73;;;14.90;;
11671;SDS011;5892;43.412;24.612;2022-12-05T14:58:45;19.27;;;13.43;;
11671;SDS011;5892;43.412;24.612;2022-12-05T15:01:17;22.30;;;17.03;;
11671;SDS011;5892;43.412;24.612;2022-12-05T15:03:58;23.00;;;16.67;;
11671;SDS011;5892;43.412;24.612;2022-12-05T15:06:41;20.53;;;13.00;;